Flight Track Log - Related Links

Times and Time Zones

All times are in EDT time to prevent confusion due to time zone crossing. See the TAM3221 flight status page for this flight to view local times or setup timezone preferences in your user account.

Time Position Orientation Groundspeed Altitude Reporting Facility
EDT Latitude Longitude Course Direction KTS MPH feet Rate Location/Type
Fri 08:41:00 PM -22.3662 -45.7878 212° Southwest  Level Estimated
Fri 08:42:00 PM -22.4295 -45.8309 212° Southwest  Level Estimated
Fri 08:43:00 PM -22.4928 -45.8740 212° Southwest  Level Estimated
Fri 08:44:00 PM -22.5560 -45.9172 212° Southwest  Level Estimated
Fri 08:45:00 PM -22.6193 -45.9605 212° Southwest  Level Estimated
Fri 08:46:00 PM -22.6826 -46.0037 212° Southwest  Level Estimated
Fri 08:47:00 PM -22.7458 -46.0470 212° Southwest  Level Estimated
Fri 08:48:00 PM -22.8091 -46.0904 212° Southwest  Level Estimated
Fri 08:49:00 PM -22.8723 -46.1338 212° Southwest  Level Estimated
Fri 08:50:00 PM -22.9355 -46.1772 212° Southwest  Level Estimated
Fri 08:51:00 PM -22.9987 -46.2207 212° Southwest  Level Estimated
Fri 08:52:00 PM -23.0619 -46.2642 212° Southwest  Level Estimated
Fri 08:53:00 PM -23.1251 -46.3078 212° Southwest  Level Estimated
Fri 08:54:00 PM -23.1882 -46.3514 212° Southwest  Level Estimated
Fri 08:55:00 PM -23.2514 -46.3950 212° Southwest  Level Estimated
Fri 08:56:00 PM -23.3146 -46.4387 212° Southwest  Level Estimated
Fri 08:57:00 PM -23.3777 -46.4824 212° Southwest  Level Estimated
Fri 08:58:00 PM -23.4408 -46.5262 212° Southwest  Level Estimated
Fri 08:59:00 PM -23.5039 -46.5700 212° Southwest  Level Estimated
Fri 09:00:00 PM -23.5670 -46.6138 212° Southwest  Level Estimated
Fri 09:01:00 PM -23.6267 -46.6554 213° Southwest  Level Estimated
Fri 09:02:00 PM -23.6267 -46.6554 114° Southeast  Level Estimated
Fri 09:03:00 PM -23.6267 -46.6554 114° Southeast  Level Estimated
Fri 09:04:00 PM -23.6267 -46.6554 114° Southeast  Level Estimated
Fri 09:05:00 PM -23.6267 -46.6554 114° Southeast  Level Estimated
Fri 09:06:00 PM -23.6267 -46.6554 114° Southeast  Level Estimated
Fri 09:07:00 PM -23.6267 -46.6554 114° Southeast  Level Estimated
Fri 09:08:00 PM -23.6267 -46.6554 114° Southeast  Level Estimated
Fri 09:09:00 PM -23.6267 -46.6554 114° Southeast  Level Estimated
Fri 09:10:00 PM -23.6267 -46.6554 114° Southeast  Level Estimated
Fri 09:11:00 PM -23.6267 -46.6554 114° Southeast  Level Estimated
Fri 09:12:00 PM -23.6267 -46.6554 114° Southeast  Level Estimated
Fri 09:13:00 PM -23.6267 -46.6554 114° Southeast  Level Estimated

Login

Don't have an account? Register now (free) for customized features, flight alerts, and more!